sensor_id;sensor_type;location;lat;lon;timestamp;temperature;humidity
3298;DHT22;1661;53.572;10.174;2023-04-03T00:00:31;3.00;79.60
3298;DHT22;1661;53.572;10.174;2023-04-03T00:02:58;3.00;79.50
3298;DHT22;1661;53.572;10.174;2023-04-03T00:05:26;3.00;79.50
3298;DHT22;1661;53.572;10.174;2023-04-03T00:07:52;2.90;79.70
3298;DHT22;1661;53.572;10.174;2023-04-03T00:10:19;2.90;80.20
3298;DHT22;1661;53.572;10.174;2023-04-03T00:12:46;2.90;80.10
3298;DHT22;1661;53.572;10.174;2023-04-03T00:15:13;2.90;80.00
3298;DHT22;1661;53.572;10.174;2023-04-03T00:17:40;2.80;79.90
3298;DHT22;1661;53.572;10.174;2023-04-03T00:20:07;2.80;79.80
3298;DHT22;1661;53.572;10.174;2023-04-03T00:22:35;2.80;80.00
3298;DHT22;1661;53.572;10.174;2023-04-03T00:25:02;2.80;79.90
3298;DHT22;1661;53.572;10.174;2023-04-03T00:27:29;2.80;80.10
3298;DHT22;1661;53.572;10.174;2023-04-03T00:29:56;2.70;80.20
3298;DHT22;1661;53.572;10.174;2023-04-03T00:32:23;2.70;80.20
3298;DHT22;1661;53.572;10.174;2023-04-03T00:34:50;2.70;80.40
3298;DHT22;1661;53.572;10.174;2023-04-03T00:37:17;2.70;80.30
3298;DHT22;1661;53.572;10.174;2023-04-03T00:39:45;2.60;80.20
3298;DHT22;1661;53.572;10.174;2023-04-03T00:42:12;2.60;80.10
3298;DHT22;1661;53.572;10.174;2023-04-03T00:47:43;2.60;80.80
3298;DHT22;1661;53.572;10.174;2023-04-03T00:50:10;2.50;80.40
3298;DHT22;1661;53.572;10.174;2023-04-03T00:52:37;2.50;80.00
3298;DHT22;1661;53.572;10.174;2023-04-03T00:55:08;2.50;80.20
3298;DHT22;1661;53.572;10.174;2023-04-03T00:57:36;2.50;80.20
3298;DHT22;1661;53.572;10.174;2023-04-03T01:00:06;2.50;80.40
3298;DHT22;1661;53.572;10.174;2023-04-03T01:02:35;2.40;80.50
3298;DHT22;1661;53.572;10.174;2023-04-03T01:05:02;2.40;80.50
3298;DHT22;1661;53.572;10.174;2023-04-03T01:07:30;2.40;80.40
3298;DHT22;1661;53.572;10.174;2023-04-03T01:10:00;2.40;80.30
3298;DHT22;1661;53.572;10.174;2023-04-03T01:12:34;2.40;80.30
3298;DHT22;1661;53.572;10.174;2023-04-03T01:15:06;2.40;80.10
3298;DHT22;1661;53.572;10.174;2023-04-03T01:17:35;2.40;80.30
3298;DHT22;1661;53.572;10.174;2023-04-03T01:23:16;2.30;80.30
3298;DHT22;1661;53.572;10.174;2023-04-03T01:25:48;2.30;80.10
3298;DHT22;1661;53.572;10.174;2023-04-03T01:28:19;2.30;79.90
3298;DHT22;1661;53.572;10.174;2023-04-03T01:30:50;2.30;80.00
3298;DHT22;1661;53.572;10.174;2023-04-03T01:33:19;2.30;80.00
3298;DHT22;1661;53.572;10.174;2023-04-03T01:35:46;2.20;80.10
3298;DHT22;1661;53.572;10.174;2023-04-03T01:38:12;2.20;80.30
3298;DHT22;1661;53.572;10.174;2023-04-03T01:40:40;2.20;80.50
3298;DHT22;1661;53.572;10.174;2023-04-03T01:43:08;2.20;80.20
3298;DHT22;1661;53.572;10.174;2023-04-03T01:45:35;2.20;80.10
3298;DHT22;1661;53.572;10.174;2023-04-03T01:48:03;2.20;80.10
3298;DHT22;1661;53.572;10.174;2023-04-03T01:50:31;2.20;80.00
3298;DHT22;1661;53.572;10.174;2023-04-03T01:52:58;2.20;80.00
3298;DHT22;1661;53.572;10.174;2023-04-03T01:55:25;2.20;79.70
3298;DHT22;1661;53.572;10.174;2023-04-03T01:57:52;2.10;79.80
3298;DHT22;1661;53.572;10.174;2023-04-03T02:00:19;2.10;79.90
3298;DHT22;1661;53.572;10.174;2023-04-03T02:02:46;2.10;79.90
3298;DHT22;1661;53.572;10.174;2023-04-03T02:05:13;2.10;80.10
3298;DHT22;1661;53.572;10.174;2023-04-03T02:07:42;2.10;80.20
3298;DHT22;1661;53.572;10.174;2023-04-03T02:10:09;2.10;80.20
3298;DHT22;1661;53.572;10.174;2023-04-03T02:12:36;2.10;80.10
3298;DHT22;1661;53.572;10.174;2023-04-03T02:15:03;2.10;80.10
3298;DHT22;1661;53.572;10.174;2023-04-03T02:17:30;2.10;80.20
3298;DHT22;1661;53.572;10.174;2023-04-03T02:22:25;2.00;80.10
3298;DHT22;1661;53.572;10.174;2023-04-03T02:24:53;2.00;80.20
3298;DHT22;1661;53.572;10.174;2023-04-03T02:27:20;2.00;80.20
3298;DHT22;1661;53.572;10.174;2023-04-03T02:29:47;2.00;79.90
3298;DHT22;1661;53.572;10.174;2023-04-03T02:32:14;1.90;80.00
3298;DHT22;1661;53.572;10.174;2023-04-03T02:34:40;1.90;80.10
3298;DHT22;1661;53.572;10.174;2023-04-03T02:37:07;1.90;80.10
3298;DHT22;1661;53.572;10.174;2023-04-03T02:39:34;1.90;79.90
3298;DHT22;1661;53.572;10.174;2023-04-03T02:42:03;1.90;79.90
3298;DHT22;1661;53.572;10.174;2023-04-03T02:44:30;1.90;79.90
3298;DHT22;1661;53.572;10.174;2023-04-03T02:46:56;1.90;80.00
3298;DHT22;1661;53.572;10.174;2023-04-03T02:49:23;1.90;80.00
3298;DHT22;1661;53.572;10.174;2023-04-03T02:51:50;1.80;79.80
3298;DHT22;1661;53.572;10.174;2023-04-03T02:54:17;1.80;79.80
3298;DHT22;1661;53.572;10.174;2023-04-03T02:56:44;1.80;80.00
3298;DHT22;1661;53.572;10.174;2023-04-03T02:59:13;1.80;79.90
3298;DHT22;1661;53.572;10.174;2023-04-03T03:01:40;1.70;79.90
3298;DHT22;1661;53.572;10.174;2023-04-03T03:04:07;1.70;79.90
3298;DHT22;1661;53.572;10.174;2023-04-03T03:06:33;1.70;80.00
3298;DHT22;1661;53.572;10.174;2023-04-03T03:09:00;1.70;79.90
3298;DHT22;1661;53.572;10.174;2023-04-03T03:11:27;1.70;80.10
3298;DHT22;1661;53.572;10.174;2023-04-03T03:13:54;1.60;80.10
3298;DHT22;1661;53.572;10.174;2023-04-03T03:16:22;1.60;80.10
3298;DHT22;1661;53.572;10.174;2023-04-03T03:18:49;1.60;80.30
3298;DHT22;1661;53.572;10.174;2023-04-03T03:21:16;1.60;80.10
3298;DHT22;1661;53.572;10.174;2023-04-03T03:23:43;1.60;80.00
3298;DHT22;1661;53.572;10.174;2023-04-03T03:26:10;1.60;80.00
3298;DHT22;1661;53.572;10.174;2023-04-03T03:28:38;1.60;80.10
3298;DHT22;1661;53.572;10.174;2023-04-03T03:31:06;1.60;80.10
3298;DHT22;1661;53.572;10.174;2023-04-03T03:33:35;1.50;80.20
3298;DHT22;1661;53.572;10.174;2023-04-03T03:36:02;1.50;80.00
3298;DHT22;1661;53.572;10.174;2023-04-03T03:38:29;1.50;80.10
3298;DHT22;1661;53.572;10.174;2023-04-03T03:40:56;1.50;80.20
3298;DHT22;1661;53.572;10.174;2023-04-03T03:43:23;1.50;80.40
3298;DHT22;1661;53.572;10.174;2023-04-03T03:45:51;1.50;80.30
3298;DHT22;1661;53.572;10.174;2023-04-03T03:48:18;1.50;80.20
3298;DHT22;1661;53.572;10.174;2023-04-03T03:50:47;1.40;80.30
3298;DHT22;1661;53.572;10.174;2023-04-03T03:53:14;1.40;80.40
3298;DHT22;1661;53.572;10.174;2023-04-03T03:55:41;1.40;80.40
3298;DHT22;1661;53.572;10.174;2023-04-03T03:58:08;1.40;80.40
3298;DHT22;1661;53.572;10.174;2023-04-03T04:00:36;1.40;80.20
3298;DHT22;1661;53.572;10.174;2023-04-03T04:03:03;1.40;80.20
3298;DHT22;1661;53.572;10.174;2023-04-03T04:05:30;1.40;80.30
3298;DHT22;1661;53.572;10.174;2023-04-03T04:07:58;1.40;80.20
3298;DHT22;1661;53.572;10.174;2023-04-03T04:10:25;1.40;80.30
3298;DHT22;1661;53.572;10.174;2023-04-03T04:12:51;1.30;80.40
3298;DHT22;1661;53.572;10.174;2023-04-03T04:15:18;1.30;80.40
3298;DHT22;1661;53.572;10.174;2023-04-03T04:17:47;1.30;80.20
3298;DHT22;1661;53.572;10.174;2023-04-03T04:20:13;1.30;80.20
3298;DHT22;1661;53.572;10.174;2023-04-03T04:22:41;1.30;80.30
3298;DHT22;1661;53.572;10.174;2023-04-03T04:25:09;1.30;80.20
3298;DHT22;1661;53.572;10.174;2023-04-03T04:27:36;1.30;80.40
3298;DHT22;1661;53.572;10.174;2023-04-03T04:30:04;1.20;80.30
3298;DHT22;1661;53.572;10.174;2023-04-03T04:32:31;1.20;80.50
3298;DHT22;1661;53.572;10.174;2023-04-03T04:34:58;1.20;80.50
3298;DHT22;1661;53.572;10.174;2023-04-03T04:37:25;1.20;80.40
3298;DHT22;1661;53.572;10.174;2023-04-03T04:39:52;1.20;80.50
3298;DHT22;1661;53.572;10.174;2023-04-03T04:42:20;1.20;80.60
3298;DHT22;1661;53.572;10.174;2023-04-03T04:44:46;1.20;80.50
3298;DHT22;1661;53.572;10.174;2023-04-03T04:47:13;1.20;80.50
3298;DHT22;1661;53.572;10.174;2023-04-03T04:49:40;1.20;80.70
3298;DHT22;1661;53.572;10.174;2023-04-03T04:52:07;1.20;80.60
3298;DHT22;1661;53.572;10.174;2023-04-03T04:54:33;1.20;80.50
3298;DHT22;1661;53.572;10.174;2023-04-03T04:57:00;1.20;80.40
3298;DHT22;1661;53.572;10.174;2023-04-03T04:59:29;1.20;80.30
3298;DHT22;1661;53.572;10.174;2023-04-03T05:01:56;1.10;80.30
3298;DHT22;1661;53.572;10.174;2023-04-03T05:04:23;1.10;80.20
3298;DHT22;1661;53.572;10.174;2023-04-03T05:06:50;1.10;80.20
3298;DHT22;1661;53.572;10.174;2023-04-03T05:09:17;1.10;80.40
3298;DHT22;1661;53.572;10.174;2023-04-03T05:11:45;1.10;80.50
3298;DHT22;1661;53.572;10.174;2023-04-03T05:14:12;1.10;80.50
3298;DHT22;1661;53.572;10.174;2023-04-03T05:16:41;1.10;80.50
3298;DHT22;1661;53.572;10.174;2023-04-03T05:19:08;1.10;80.40
3298;DHT22;1661;53.572;10.174;2023-04-03T05:21:35;1.10;80.40
3298;DHT22;1661;53.572;10.174;2023-04-03T05:24:02;1.10;80.40
3298;DHT22;1661;53.572;10.174;2023-04-03T05:26:29;1.10;80.40
3298;DHT22;1661;53.572;10.174;2023-04-03T05:28:56;1.10;80.50
3298;DHT22;1661;53.572;10.174;2023-04-03T05:31:23;1.10;80.50
3298;DHT22;1661;53.572;10.174;2023-04-03T05:33:51;1.20;80.60
3298;DHT22;1661;53.572;10.174;2023-04-03T05:36:18;1.20;80.60
3298;DHT22;1661;53.572;10.174;2023-04-03T05:38:45;1.20;80.70
3298;DHT22;1661;53.572;10.174;2023-04-03T05:41:12;1.20;80.80
3298;DHT22;1661;53.572;10.174;2023-04-03T05:43:39;1.20;80.90
3298;DHT22;1661;53.572;10.174;2023-04-03T05:46:10;1.30;81.10
3298;DHT22;1661;53.572;10.174;2023-04-03T05:48:37;1.40;81.30
3298;DHT22;1661;53.572;10.174;2023-04-03T05:51:06;1.40;81.30
3298;DHT22;1661;53.572;10.174;2023-04-03T05:53:35;1.50;81.50
3298;DHT22;1661;53.572;10.174;2023-04-03T05:56:03;1.60;81.40
3298;DHT22;1661;53.572;10.174;2023-04-03T05:58:29;1.80;81.30
3298;DHT22;1661;53.572;10.174;2023-04-03T06:00:56;1.90;81.10
3298;DHT22;1661;53.572;10.174;2023-04-03T06:03:24;2.00;80.90
3298;DHT22;1661;53.572;10.174;2023-04-03T06:05:50;2.10;80.70
3298;DHT22;1661;53.572;10.174;2023-04-03T06:08:19;2.20;80.50
3298;DHT22;1661;53.572;10.174;2023-04-03T06:10:45;2.30;80.30
3298;DHT22;1661;53.572;10.174;2023-04-03T06:13:13;2.40;80.20
3298;DHT22;1661;53.572;10.174;2023-04-03T06:15:40;2.50;80.10
3298;DHT22;1661;53.572;10.174;2023-04-03T06:18:07;2.60;80.20
3298;DHT22;1661;53.572;10.174;2023-04-03T06:20:34;2.60;80.10
3298;DHT22;1661;53.572;10.174;2023-04-03T06:23:01;2.70;80.10
3298;DHT22;1661;53.572;10.174;2023-04-03T06:25:29;2.70;79.90
3298;DHT22;1661;53.572;10.174;2023-04-03T06:27:57;2.80;80.10
3298;DHT22;1661;53.572;10.174;2023-04-03T06:30:24;2.90;80.00
3298;DHT22;1661;53.572;10.174;2023-04-03T06:32:50;2.90;80.20
3298;DHT22;1661;53.572;10.174;2023-04-03T06:35:17;3.00;80.00
3298;DHT22;1661;53.572;10.174;2023-04-03T06:37:44;3.10;80.00
3298;DHT22;1661;53.572;10.174;2023-04-03T06:40:17;3.10;80.10
3298;DHT22;1661;53.572;10.174;2023-04-03T06:42:47;3.20;80.20
3298;DHT22;1661;53.572;10.174;2023-04-03T06:45:14;3.30;80.40
3298;DHT22;1661;53.572;10.174;2023-04-03T06:47:41;3.40;80.30
3298;DHT22;1661;53.572;10.174;2023-04-03T06:50:09;3.60;79.90
3298;DHT22;1661;53.572;10.174;2023-04-03T06:52:37;3.70;79.70
3298;DHT22;1661;53.572;10.174;2023-04-03T06:55:05;3.90;79.80
3298;DHT22;1661;53.572;10.174;2023-04-03T06:57:32;4.00;79.60
3298;DHT22;1661;53.572;10.174;2023-04-03T07:00:01;4.20;79.40
3298;DHT22;1661;53.572;10.174;2023-04-03T07:02:28;4.30;78.90
3298;DHT22;1661;53.572;10.174;2023-04-03T07:04:55;4.40;78.00
3298;DHT22;1661;53.572;10.174;2023-04-03T07:07:22;4.50;78.10
3298;DHT22;1661;53.572;10.174;2023-04-03T07:09:48;4.60;77.80
3298;DHT22;1661;53.572;10.174;2023-04-03T07:12:15;4.70;77.70
3298;DHT22;1661;53.572;10.174;2023-04-03T07:14:42;4.90;77.30
3298;DHT22;1661;53.572;10.174;2023-04-03T07:17:10;5.00;76.90
3298;DHT22;1661;53.572;10.174;2023-04-03T07:19:37;5.10;76.60
3298;DHT22;1661;53.572;10.174;2023-04-03T07:22:04;5.20;76.20
3298;DHT22;1661;53.572;10.174;2023-04-03T07:24:30;5.40;76.40
3298;DHT22;1661;53.572;10.174;2023-04-03T07:26:57;5.50;75.60
3298;DHT22;1661;53.572;10.174;2023-04-03T07:29:24;5.70;75.30
3298;DHT22;1661;53.572;10.174;2023-04-03T07:31:51;6.00;74.80
3298;DHT22;1661;53.572;10.174;2023-04-03T07:34:19;6.20;74.20
3298;DHT22;1661;53.572;10.174;2023-04-03T07:36:46;6.40;72.50
3298;DHT22;1661;53.572;10.174;2023-04-03T07:39:12;6.60;71.80
3298;DHT22;1661;53.572;10.174;2023-04-03T07:41:39;6.80;70.60
3298;DHT22;1661;53.572;10.174;2023-04-03T07:44:06;6.90;68.80
3298;DHT22;1661;53.572;10.174;2023-04-03T07:46:35;7.00;67.50
3298;DHT22;1661;53.572;10.174;2023-04-03T07:49:02;7.20;67.30
3298;DHT22;1661;53.572;10.174;2023-04-03T07:51:32;7.40;67.30
3298;DHT22;1661;53.572;10.174;2023-04-03T07:54:00;7.60;65.70
3298;DHT22;1661;53.572;10.174;2023-04-03T07:56:26;7.70;65.70
3298;DHT22;1661;53.572;10.174;2023-04-03T07:58:53;7.90;65.80
3298;DHT22;1661;53.572;10.174;2023-04-03T08:01:20;8.10;65.70
3298;DHT22;1661;53.572;10.174;2023-04-03T08:03:47;8.30;64.00
3298;DHT22;1661;53.572;10.174;2023-04-03T08:06:14;8.50;63.70
3298;DHT22;1661;53.572;10.174;2023-04-03T08:08:43;8.80;63.90
3298;DHT22;1661;53.572;10.174;2023-04-03T08:11:11;9.00;61.40
3298;DHT22;1661;53.572;10.174;2023-04-03T08:13:38;9.10;59.20
3298;DHT22;1661;53.572;10.174;2023-04-03T08:16:09;9.30;58.80
3298;DHT22;1661;53.572;10.174;2023-04-03T08:18:36;9.40;57.90
3298;DHT22;1661;53.572;10.174;2023-04-03T08:21:08;9.50;56.00
3298;DHT22;1661;53.572;10.174;2023-04-03T08:23:44;9.60;57.20
3298;DHT22;1661;53.572;10.174;2023-04-03T08:26:13;9.70;55.90
3298;DHT22;1661;53.572;10.174;2023-04-03T08:28:40;9.80;55.90
3298;DHT22;1661;53.572;10.174;2023-04-03T08:31:11;10.00;55.50
3298;DHT22;1661;53.572;10.174;2023-04-03T08:33:39;10.20;55.20
3298;DHT22;1661;53.572;10.174;2023-04-03T08:36:15;10.40;55.00
3298;DHT22;1661;53.572;10.174;2023-04-03T08:38:44;10.50;51.30
3298;DHT22;1661;53.572;10.174;2023-04-03T08:41:15;10.50;53.10
3298;DHT22;1661;53.572;10.174;2023-04-03T08:43:58;10.70;54.20
3298;DHT22;1661;53.572;10.174;2023-04-03T08:46:35;10.80;50.10
3298;DHT22;1661;53.572;10.174;2023-04-03T08:49:21;10.90;49.70
3298;DHT22;1661;53.572;10.174;2023-04-03T08:51:51;11.10;51.00
3298;DHT22;1661;53.572;10.174;2023-04-03T08:54:25;11.10;46.20
3298;DHT22;1661;53.572;10.174;2023-04-03T08:56:53;11.20;46.80
3298;DHT22;1661;53.572;10.174;2023-04-03T08:59:26;11.40;47.50
3298;DHT22;1661;53.572;10.174;2023-04-03T09:01:54;11.70;50.60
3298;DHT22;1661;53.572;10.174;2023-04-03T09:04:22;11.50;44.80
3298;DHT22;1661;53.572;10.174;2023-04-03T09:06:52;11.00;46.80
3298;DHT22;1661;53.572;10.174;2023-04-03T09:09:36;10.90;48.40
3298;DHT22;1661;53.572;10.174;2023-04-03T09:12:15;11.10;46.50
3298;DHT22;1661;53.572;10.174;2023-04-03T09:14:48;11.30;52.60
3298;DHT22;1661;53.572;10.174;2023-04-03T09:17:24;11.40;46.70
3298;DHT22;1661;53.572;10.174;2023-04-03T09:20:00;11.60;48.70
3298;DHT22;1661;53.572;10.174;2023-04-03T09:22:31;11.80;45.00
3298;DHT22;1661;53.572;10.174;2023-04-03T09:25:04;12.00;47.90
3298;DHT22;1661;53.572;10.174;2023-04-03T09:27:33;12.30;49.60
3298;DHT22;1661;53.572;10.174;2023-04-03T09:30:00;12.50;51.70
3298;DHT22;1661;53.572;10.174;2023-04-03T09:32:28;12.80;45.20
3298;DHT22;1661;53.572;10.174;2023-04-03T09:34:58;13.10;47.10
3298;DHT22;1661;53.572;10.174;2023-04-03T09:37:38;13.40;44.50
3298;DHT22;1661;53.572;10.174;2023-04-03T09:40:29;13.50;42.70
3298;DHT22;1661;53.572;10.174;2023-04-03T09:42:58;13.60;40.90
3298;DHT22;1661;53.572;10.174;2023-04-03T09:45:27;13.70;42.50
3298;DHT22;1661;53.572;10.174;2023-04-03T09:48:06;13.80;44.80
3298;DHT22;1661;53.572;10.174;2023-04-03T09:50:34;14.00;45.70
3298;DHT22;1661;53.572;10.174;2023-04-03T09:53:06;14.00;51.40
3298;DHT22;1661;53.572;10.174;2023-04-03T09:55:42;13.60;44.20
3298;DHT22;1661;53.572;10.174;2023-04-03T09:58:24;13.60;48.30
3298;DHT22;1661;53.572;10.174;2023-04-03T10:00:55;13.60;41.50
3298;DHT22;1661;53.572;10.174;2023-04-03T10:03:25;13.70;43.40
3298;DHT22;1661;53.572;10.174;2023-04-03T10:05:52;14.00;44.60
3298;DHT22;1661;53.572;10.174;2023-04-03T10:08:23;14.00;39.30
3298;DHT22;1661;53.572;10.174;2023-04-03T10:14:15;14.10;50.10
3298;DHT22;1661;53.572;10.174;2023-04-03T10:16:47;14.10;41.60
3298;DHT22;1661;53.572;10.174;2023-04-03T10:19:32;13.90;39.40
3298;DHT22;1661;53.572;10.174;2023-04-03T10:22:04;13.90;48.70
3298;DHT22;1661;53.572;10.174;2023-04-03T10:24:41;14.00;49.50
3298;DHT22;1661;53.572;10.174;2023-04-03T10:27:13;14.10;44.40
3298;DHT22;1661;53.572;10.174;2023-04-03T10:29:52;14.10;41.90
3298;DHT22;1661;53.572;10.174;2023-04-03T10:32:37;14.20;43.00
3298;DHT22;1661;53.572;10.174;2023-04-03T10:35:15;14.20;46.30
3298;DHT22;1661;53.572;10.174;2023-04-03T10:37:52;14.20;49.60
3298;DHT22;1661;53.572;10.174;2023-04-03T10:40:28;14.10;54.40
3298;DHT22;1661;53.572;10.174;2023-04-03T10:43:02;13.80;52.00
3298;DHT22;1661;53.572;10.174;2023-04-03T10:45:44;13.90;61.20
3298;DHT22;1661;53.572;10.174;2023-04-03T10:48:17;13.80;50.80
3298;DHT22;1661;53.572;10.174;2023-04-03T10:50:56;14.00;56.10
3298;DHT22;1661;53.572;10.174;2023-04-03T10:53:29;14.10;51.60
3298;DHT22;1661;53.572;10.174;2023-04-03T10:56:02;14.10;46.80
3298;DHT22;1661;53.572;10.174;2023-04-03T10:58:33;13.90;46.90
3298;DHT22;1661;53.572;10.174;2023-04-03T11:01:06;13.70;46.30
3298;DHT22;1661;53.572;10.174;2023-04-03T11:03:36;13.80;46.40
3298;DHT22;1661;53.572;10.174;2023-04-03T11:06:09;13.90;45.40
3298;DHT22;1661;53.572;10.174;2023-04-03T11:08:39;14.30;48.30
3298;DHT22;1661;53.572;10.174;2023-04-03T11:11:13;14.70;46.90
3298;DHT22;1661;53.572;10.174;2023-04-03T11:13:43;15.00;44.60
3298;DHT22;1661;53.572;10.174;2023-04-03T11:16:19;15.20;43.50
3298;DHT22;1661;53.572;10.174;2023-04-03T11:18:50;15.40;43.50
3298;DHT22;1661;53.572;10.174;2023-04-03T11:21:22;15.20;45.20
3298;DHT22;1661;53.572;10.174;2023-04-03T11:23:52;15.30;43.10
3298;DHT22;1661;53.572;10.174;2023-04-03T11:26:21;15.10;46.90
3298;DHT22;1661;53.572;10.174;2023-04-03T11:28:53;15.00;58.40
3298;DHT22;1661;53.572;10.174;2023-04-03T11:31:37;14.80;55.70
3298;DHT22;1661;53.572;10.174;2023-04-03T11:34:19;14.60;52.10
3298;DHT22;1661;53.572;10.174;2023-04-03T11:36:49;14.40;47.30
3298;DHT22;1661;53.572;10.174;2023-04-03T11:39:22;14.20;51.40
3298;DHT22;1661;53.572;10.174;2023-04-03T11:41:50;14.10;50.60
3298;DHT22;1661;53.572;10.174;2023-04-03T11:44:30;14.00;53.20
3298;DHT22;1661;53.572;10.174;2023-04-03T11:47:01;14.00;56.80
3298;DHT22;1661;53.572;10.174;2023-04-03T11:49:54;14.00;44.90
3298;DHT22;1661;53.572;10.174;2023-04-03T11:52:57;14.20;46.20
3298;DHT22;1661;53.572;10.174;2023-04-03T11:55:43;14.50;47.30
3298;DHT22;1661;53.572;10.174;2023-04-03T11:58:23;14.80;40.20
3298;DHT22;1661;53.572;10.174;2023-04-03T12:00:55;14.70;41.00
3298;DHT22;1661;53.572;10.174;2023-04-03T12:07:09;15.10;46.00
3298;DHT22;1661;53.572;10.174;2023-04-03T12:10:17;15.40;39.60
3298;DHT22;1661;53.572;10.174;2023-04-03T12:12:58;16.00;46.00
3298;DHT22;1661;53.572;10.174;2023-04-03T12:15:54;16.40;40.80
3298;DHT22;1661;53.572;10.174;2023-04-03T12:18:42;16.60;39.60
3298;DHT22;1661;53.572;10.174;2023-04-03T12:21:09;16.70;47.30
3298;DHT22;1661;53.572;10.174;2023-04-03T12:24:03;16.70;37.20
3298;DHT22;1661;53.572;10.174;2023-04-03T12:26:41;16.70;42.00
3298;DHT22;1661;53.572;10.174;2023-04-03T12:29:15;16.60;44.00
3298;DHT22;1661;53.572;10.174;2023-04-03T12:31:50;16.30;37.30
3298;DHT22;1661;53.572;10.174;2023-04-03T12:34:33;16.30;40.30
3298;DHT22;1661;53.572;10.174;2023-04-03T12:37:12;16.20;45.10
3298;DHT22;1661;53.572;10.174;2023-04-03T12:39:59;16.30;38.60
3298;DHT22;1661;53.572;10.174;2023-04-03T12:42:52;16.40;47.20
3298;DHT22;1661;53.572;10.174;2023-04-03T12:45:23;16.50;56.80
3298;DHT22;1661;53.572;10.174;2023-04-03T12:47:53;16.70;53.20
3298;DHT22;1661;53.572;10.174;2023-04-03T12:50:24;16.80;39.70
3298;DHT22;1661;53.572;10.174;2023-04-03T12:52:58;16.80;42.70
3298;DHT22;1661;53.572;10.174;2023-04-03T12:55:27;16.90;38.40
3298;DHT22;1661;53.572;10.174;2023-04-03T12:57:54;17.10;40.40
3298;DHT22;1661;53.572;10.174;2023-04-03T13:00:28;17.20;49.40
3298;DHT22;1661;53.572;10.174;2023-04-03T13:02:56;17.00;44.10
3298;DHT22;1661;53.572;10.174;2023-04-03T13:05:23;17.00;48.70
3298;DHT22;1661;53.572;10.174;2023-04-03T13:07:55;16.60;40.00
3298;DHT22;1661;53.572;10.174;2023-04-03T13:10:28;16.40;44.40
3298;DHT22;1661;53.572;10.174;2023-04-03T13:12:58;16.40;40.90
3298;DHT22;1661;53.572;10.174;2023-04-03T13:15:41;16.40;37.20
3298;DHT22;1661;53.572;10.174;2023-04-03T13:18:25;16.10;53.20
3298;DHT22;1661;53.572;10.174;2023-04-03T13:20:55;16.10;44.90
3298;DHT22;1661;53.572;10.174;2023-04-03T13:23:23;16.20;41.70
3298;DHT22;1661;53.572;10.174;2023-04-03T13:25:51;16.30;48.30
3298;DHT22;1661;53.572;10.174;2023-04-03T13:28:21;16.50;43.30
3298;DHT22;1661;53.572;10.174;2023-04-03T13:30:56;16.70;41.40
3298;DHT22;1661;53.572;10.174;2023-04-03T13:33:27;16.80;44.80
3298;DHT22;1661;53.572;10.174;2023-04-03T13:35:56;17.00;46.60
3298;DHT22;1661;53.572;10.174;2023-04-03T13:38:25;16.90;42.00
3298;DHT22;1661;53.572;10.174;2023-04-03T13:40:56;16.20;47.30
3298;DHT22;1661;53.572;10.174;2023-04-03T13:43:25;16.20;53.70
3298;DHT22;1661;53.572;10.174;2023-04-03T13:46:21;16.30;50.80
3298;DHT22;1661;53.572;10.174;2023-04-03T13:48:50;16.40;45.80
3298;DHT22;1661;53.572;10.174;2023-04-03T13:51:22;16.60;41.20
3298;DHT22;1661;53.572;10.174;2023-04-03T13:53:52;16.80;43.70
3298;DHT22;1661;53.572;10.174;2023-04-03T13:56:25;16.90;53.20
3298;DHT22;1661;53.572;10.174;2023-04-03T13:59:05;16.80;49.70
3298;DHT22;1661;53.572;10.174;2023-04-03T14:01:48;16.90;45.20
3298;DHT22;1661;53.572;10.174;2023-04-03T14:04:19;16.40;43.90
3298;DHT22;1661;53.572;10.174;2023-04-03T14:06:47;16.10;58.80
3298;DHT22;1661;53.572;10.174;2023-04-03T14:09:15;16.00;45.20
3298;DHT22;1661;53.572;10.174;2023-04-03T14:11:43;16.10;40.70
3298;DHT22;1661;53.572;10.174;2023-04-03T14:14:14;16.30;48.90
3298;DHT22;1661;53.572;10.174;2023-04-03T14:16:43;16.40;36.80
3298;DHT22;1661;53.572;10.174;2023-04-03T14:19:18;16.20;36.50
3298;DHT22;1661;53.572;10.174;2023-04-03T14:21:46;16.20;35.70
3298;DHT22;1661;53.572;10.174;2023-04-03T14:24:13;16.20;37.20
3298;DHT22;1661;53.572;10.174;2023-04-03T14:26:40;16.30;39.00
3298;DHT22;1661;53.572;10.174;2023-04-03T14:29:11;16.30;41.70
3298;DHT22;1661;53.572;10.174;2023-04-03T14:31:39;16.40;40.50
3298;DHT22;1661;53.572;10.174;2023-04-03T14:34:06;16.40;44.20
3298;DHT22;1661;53.572;10.174;2023-04-03T14:36:33;16.40;49.20
3298;DHT22;1661;53.572;10.174;2023-04-03T14:39:00;16.30;39.00
3298;DHT22;1661;53.572;10.174;2023-04-03T14:41:28;16.10;45.90
3298;DHT22;1661;53.572;10.174;2023-04-03T14:43:54;16.20;48.50
3298;DHT22;1661;53.572;10.174;2023-04-03T14:46:26;16.20;46.90
3298;DHT22;1661;53.572;10.174;2023-04-03T14:48:54;16.30;57.00
3298;DHT22;1661;53.572;10.174;2023-04-03T14:51:21;16.20;43.50
3298;DHT22;1661;53.572;10.174;2023-04-03T14:53:48;16.30;46.20
3298;DHT22;1661;53.572;10.174;2023-04-03T14:56:18;16.30;44.20
3298;DHT22;1661;53.572;10.174;2023-04-03T14:58:47;16.30;47.80
3298;DHT22;1661;53.572;10.174;2023-04-03T15:01:16;16.30;50.10
3298;DHT22;1661;53.572;10.174;2023-04-03T15:03:44;16.30;41.60
3298;DHT22;1661;53.572;10.174;2023-04-03T15:06:13;16.30;39.20
3298;DHT22;1661;53.572;10.174;2023-04-03T15:08:40;16.10;46.10
3298;DHT22;1661;53.572;10.174;2023-04-03T15:11:08;16.20;47.70
3298;DHT22;1661;53.572;10.174;2023-04-03T15:13:35;16.30;42.00
3298;DHT22;1661;53.572;10.174;2023-04-03T15:16:02;16.40;42.50
3298;DHT22;1661;53.572;10.174;2023-04-03T15:18:35;15.90;35.90
3298;DHT22;1661;53.572;10.174;2023-04-03T15:21:05;15.60;45.90
3298;DHT22;1661;53.572;10.174;2023-04-03T15:23:32;15.60;45.80
3298;DHT22;1661;53.572;10.174;2023-04-03T15:25:59;15.60;51.90
3298;DHT22;1661;53.572;10.174;2023-04-03T15:28:28;15.70;52.70
3298;DHT22;1661;53.572;10.174;2023-04-03T15:30:56;15.70;38.60
3298;DHT22;1661;53.572;10.174;2023-04-03T15:33:23;15.50;37.70
3298;DHT22;1661;53.572;10.174;2023-04-03T15:35:51;15.40;46.10
3298;DHT22;1661;53.572;10.174;2023-04-03T15:38:19;15.50;46.30
3298;DHT22;1661;53.572;10.174;2023-04-03T15:40:46;15.50;46.10
3298;DHT22;1661;53.572;10.174;2023-04-03T15:43:14;15.50;47.70
3298;DHT22;1661;53.572;10.174;2023-04-03T15:45:42;15.50;51.00
3298;DHT22;1661;53.572;10.174;2023-04-03T15:48:09;15.30;48.40
3298;DHT22;1661;53.572;10.174;2023-04-03T15:50:36;15.20;57.60
3298;DHT22;1661;53.572;10.174;2023-04-03T15:53:03;15.20;46.30
3298;DHT22;1661;53.572;10.174;2023-04-03T15:55:33;15.10;56.70
3298;DHT22;1661;53.572;10.174;2023-04-03T15:58:00;15.00;48.80
3298;DHT22;1661;53.572;10.174;2023-04-03T16:00:28;14.90;50.00
3298;DHT22;1661;53.572;10.174;2023-04-03T16:02:57;14.90;50.20
3298;DHT22;1661;53.572;10.174;2023-04-03T16:05:26;14.90;49.20
3298;DHT22;1661;53.572;10.174;2023-04-03T16:07:54;14.80;48.70
3298;DHT22;1661;53.572;10.174;2023-04-03T16:10:21;14.80;50.60
3298;DHT22;1661;53.572;10.174;2023-04-03T16:12:49;14.50;45.40
3298;DHT22;1661;53.572;10.174;2023-04-03T16:15:16;14.30;46.60
3298;DHT22;1661;53.572;10.174;2023-04-03T16:17:43;14.20;48.30
3298;DHT22;1661;53.572;10.174;2023-04-03T16:20:11;14.00;45.80
3298;DHT22;1661;53.572;10.174;2023-04-03T16:22:39;13.90;47.50
3298;DHT22;1661;53.572;10.174;2023-04-03T16:25:08;13.80;49.40
3298;DHT22;1661;53.572;10.174;2023-04-03T16:27:35;13.90;54.40